createdAt,value
2023-04-22T00:00:49.049Z,10.719999
2023-04-22T00:01:49.150Z,10.639999
2023-04-22T00:02:49.387Z,10.8
2023-04-22T00:03:49.630Z,10.8
2023-04-22T00:04:49.758Z,10.8
2023-04-22T00:05:49.795Z,10.639999
2023-04-22T00:06:49.859Z,10.48
2023-04-22T00:07:50.007Z,10.639999
2023-04-22T00:08:50.175Z,10.4
2023-04-22T00:09:50.312Z,10.639999
2023-04-22T00:10:50.460Z,10.48
2023-04-22T00:11:50.613Z,10.48
2023-04-22T00:12:50.768Z,10.639999
2023-04-22T00:13:50.933Z,10.719999
2023-04-22T00:14:51.024Z,10.639999
2023-04-22T00:15:51.221Z,10.639999
2023-04-22T00:16:51.272Z,10.48
2023-04-22T00:17:51.442Z,10.719999
2023-04-22T00:18:51.592Z,10.639999
2023-04-22T00:19:51.721Z,10.48
2023-04-22T00:20:51.844Z,10.639999
2023-04-22T00:21:51.930Z,10.4
2023-04-22T00:22:52.092Z,10.48
2023-04-22T00:23:52.237Z,10.639999
2023-04-22T00:24:52.385Z,10.639999
2023-04-22T00:25:52.484Z,10.639999
2023-04-22T00:26:52.585Z,10.4
2023-04-22T00:27:52.750Z,10.639999
2023-04-22T00:28:52.914Z,10.639999
2023-04-22T00:29:53.052Z,10.719999
2023-04-22T00:30:53.222Z,10.719999
2023-04-22T00:31:53.332Z,10.48
2023-04-22T00:32:53.459Z,10.4
2023-04-22T00:33:53.603Z,10.32
2023-04-22T00:34:53.755Z,10.32
2023-04-22T00:35:53.852Z,10.48
2023-04-22T00:36:54.011Z,10.48
2023-04-22T00:37:54.168Z,10.4
2023-04-22T00:38:54.315Z,10.4
2023-04-22T00:39:54.426Z,10.48
2023-04-22T00:40:54.504Z,10.48
2023-04-22T00:41:54.663Z,10.48
2023-04-22T00:42:54.808Z,10.48
2023-04-22T00:43:55.036Z,10.48
2023-04-22T00:44:55.064Z,10.48
2023-04-22T00:45:55.236Z,10.48
2023-04-22T00:46:55.459Z,10.32
2023-04-22T00:47:55.610Z,10.4
2023-04-22T00:48:55.674Z,10.48
2023-04-22T00:49:55.821Z,10.32
2023-04-22T00:50:55.969Z,10.08
2023-04-22T00:51:56.122Z,10.32
2023-04-22T00:52:56.279Z,10.32
2023-04-22T00:53:56.427Z,10.32
2023-04-22T00:54:56.580Z,10.24
2023-04-22T00:55:56.679Z,10.32
2023-04-22T00:56:56.837Z,10.24
2023-04-22T00:57:56.984Z,10.48
2023-04-22T00:58:57.130Z,10.48
2023-04-22T00:59:57.282Z,10.48
2023-04-22T01:00:57.461Z,10.4
2023-04-22T01:01:57.630Z,10.08
2023-04-22T01:02:57.977Z,10
2023-04-22T01:03:57.942Z,10
2023-04-22T01:04:57.998Z,10.24
2023-04-22T01:05:58.145Z,10.24
2023-04-22T01:06:58.302Z,10.08
2023-04-22T01:07:58.460Z,10
2023-04-22T01:08:58.600Z,10.08
2023-04-22T01:09:58.755Z,10
2023-04-22T01:10:58.906Z,10.24
2023-04-22T01:11:59.054Z,10.24
2023-04-22T01:12:59.211Z,9.92
2023-04-22T01:13:59.374Z,9.599999
2023-04-22T01:15:00.339Z,9.679999
2023-04-22T01:15:59.660Z,9.679999
2023-04-22T01:16:59.845Z,9.84
2023-04-22T01:17:59.964Z,9.84
2023-04-22T01:19:00.019Z,9.84
2023-04-22T01:20:00.173Z,9.679999
2023-04-22T01:21:00.326Z,9.679999
2023-04-22T01:22:00.485Z,9.599999
2023-04-22T01:23:00.634Z,9.679999
2023-04-22T01:24:00.780Z,9.679999
2023-04-22T01:25:00.928Z,9.92
2023-04-22T01:26:01.041Z,9.84
2023-04-22T01:27:01.189Z,9.84
2023-04-22T01:28:01.336Z,9.84
2023-04-22T01:29:01.491Z,9.92
2023-04-22T01:30:01.653Z,9.92
2023-04-22T01:31:01.799Z,9.84
2023-04-22T01:32:01.960Z,9.84
2023-04-22T01:33:02.231Z,10
2023-04-22T01:34:02.205Z,10.08
2023-04-22T01:35:02.348Z,9.679999
2023-04-22T01:36:02.512Z,9.92
2023-04-22T01:37:02.646Z,10.08
2023-04-22T01:38:02.803Z,10.08
2023-04-22T01:39:02.965Z,10.24
2023-04-22T01:40:03.105Z,10
2023-04-22T01:41:03.261Z,10
2023-04-22T01:42:03.409Z,10
2023-04-22T01:43:03.556Z,10.24
2023-04-22T01:44:03.718Z,10.24
2023-04-22T01:45:03.860Z,10
2023-04-22T01:46:04.012Z,9.92
2023-04-22T01:47:04.119Z,10.08
2023-04-22T01:48:04.324Z,10.08
2023-04-22T01:49:04.425Z,10.08
2023-04-22T01:50:04.993Z,10.08
2023-04-22T01:51:04.682Z,9.92
2023-04-22T01:52:04.831Z,10
2023-04-22T01:53:04.925Z,10
2023-04-22T01:54:05.078Z,9.92
2023-04-22T01:55:05.192Z,9.92
2023-04-22T01:56:05.333Z,9.92
2023-04-22T01:57:05.488Z,10.08
2023-04-22T01:58:05.639Z,10
2023-04-22T01:59:05.782Z,10
2023-04-22T02:00:05.893Z,10
2023-04-22T02:01:06.074Z,10
2023-04-22T02:02:06.184Z,10.08
2023-04-22T02:03:06.370Z,9.92
2023-04-22T02:04:06.405Z,10.24
2023-04-22T02:05:06.649Z,10.08
2023-04-22T02:06:06.650Z,10.08
2023-04-22T02:07:06.757Z,9.92
2023-04-22T02:08:06.902Z,10
2023-04-22T02:09:07.054Z,10
2023-04-22T02:10:07.269Z,9.92
2023-04-22T02:11:07.361Z,9.84
2023-04-22T02:12:07.501Z,9.84
2023-04-22T02:13:07.655Z,10
2023-04-22T02:14:07.823Z,10
2023-04-22T02:15:07.959Z,9.92
2023-04-22T02:16:08.168Z,9.679999
2023-04-22T02:17:08.273Z,9.92
2023-04-22T02:18:08.417Z,9.679999
2023-04-22T02:19:08.611Z,9.679999
2023-04-22T02:20:08.751Z,9.52
2023-04-22T02:21:08.821Z,9.84
2023-04-22T02:22:08.969Z,9.92
2023-04-22T02:23:09.122Z,9.92
2023-04-22T02:24:09.239Z,9.84
2023-04-22T02:25:09.327Z,9.84
2023-04-22T02:26:09.474Z,9.84
2023-04-22T02:27:09.628Z,9.599999
2023-04-22T02:28:09.778Z,9.84
2023-04-22T02:29:09.935Z,9.679999
2023-04-22T02:30:10.085Z,9.679999
2023-04-22T02:31:10.247Z,9.84
2023-04-22T02:32:10.300Z,9.84
2023-04-22T02:33:10.441Z,9.679999
2023-04-22T02:34:10.588Z,9.679999
2023-04-22T02:35:10.745Z,9.84
2023-04-22T02:36:10.897Z,9.92
2023-04-22T02:37:10.998Z,9.92
2023-04-22T02:38:11.152Z,10
2023-04-22T02:39:11.249Z,10
2023-04-22T02:40:11.395Z,10
2023-04-22T02:41:11.547Z,9.92
2023-04-22T02:42:11.699Z,10
2023-04-22T02:43:11.811Z,9.92
2023-04-22T02:44:11.905Z,9.84
2023-04-22T02:45:12.051Z,9.92
2023-04-22T02:46:12.234Z,9.84
2023-04-22T02:47:12.305Z,9.92
2023-04-22T02:48:12.494Z,10.08
2023-04-22T02:49:12.566Z,10
2023-04-22T02:50:12.665Z,9.92
2023-04-22T02:51:12.821Z,9.92
2023-04-22T02:52:12.919Z,9.84
2023-04-22T02:53:13.066Z,10
2023-04-22T02:54:13.228Z,10.08
2023-04-22T02:55:13.383Z,10.08
2023-04-22T02:56:13.525Z,10
2023-04-22T02:57:13.673Z,10.08
2023-04-22T02:58:13.784Z,10.08
2023-04-22T02:59:13.923Z,10.24
2023-04-22T03:00:14.078Z,10.24
2023-04-22T03:01:14.303Z,10.24
2023-04-22T03:02:14.394Z,10.24
2023-04-22T03:03:14.594Z,10.08
2023-04-22T03:04:14.767Z,10.32
2023-04-22T03:05:14.805Z,10.4
2023-04-22T03:06:14.942Z,10.08
2023-04-22T03:07:15.094Z,10.32
2023-04-22T03:08:15.192Z,10.32
2023-04-22T03:09:15.348Z,10.24
2023-04-22T03:10:15.463Z,10.32
2023-04-22T03:11:15.663Z,10.32
2023-04-22T03:12:15.805Z,10.24
2023-04-22T03:13:15.953Z,10.08
2023-04-22T03:14:16.108Z,10.24
2023-04-22T03:15:18.134Z,10.24
2023-04-22T03:16:16.417Z,10.32
2023-04-22T03:17:16.504Z,10.24
2023-04-22T03:18:16.656Z,10.4
2023-04-22T03:19:16.809Z,10.32
2023-04-22T03:20:16.917Z,10.4
2023-04-22T03:21:17.061Z,10.24
2023-04-22T03:22:17.217Z,10.08
2023-04-22T03:23:17.378Z,10.08
2023-04-22T03:24:17.518Z,10.24
2023-04-22T03:25:17.682Z,10.08
2023-04-22T03:26:17.835Z,10.08
2023-04-22T03:27:17.975Z,10
2023-04-22T03:28:18.123Z,9.92
2023-04-22T03:29:18.292Z,9.92
2023-04-22T03:30:18.436Z,9.92
2023-04-22T03:31:18.547Z,10.08
2023-04-22T03:32:18.778Z,10.08
2023-04-22T03:33:18.845Z,10.08
2023-04-22T03:34:19.001Z,9.84
2023-04-22T03:35:19.138Z,10
2023-04-22T03:36:19.238Z,9.92
2023-04-22T03:37:19.391Z,9.679999
2023-04-22T03:38:19.548Z,9.679999
2023-04-22T03:39:19.694Z,9.52
2023-04-22T03:40:19.851Z,9.52
2023-04-22T03:41:19.995Z,9.599999
2023-04-22T03:42:20.151Z,9.52
2023-04-22T03:43:20.263Z,9.28
2023-04-22T03:44:20.404Z,9.28
2023-04-22T03:45:20.591Z,9.28
2023-04-22T03:46:20.751Z,9.28
2023-04-22T03:47:20.872Z,9.28
2023-04-22T03:48:20.960Z,9.36
2023-04-22T03:49:21.107Z,9.52
2023-04-22T03:50:21.260Z,9.36
2023-04-22T03:51:21.413Z,9.28
2023-04-22T03:52:21.563Z,9.28
2023-04-22T03:53:22.035Z,9.28
2023-04-22T03:54:21.901Z,9.36
2023-04-22T03:55:21.970Z,9.599999
2023-04-22T03:56:22.452Z,9.84
2023-04-22T03:57:22.222Z,10
2023-04-22T03:58:22.414Z,10.08
2023-04-22T03:59:22.529Z,10.24
2023-04-22T04:00:22.723Z,10.08
2023-04-22T04:01:22.834Z,10.32
2023-04-22T04:02:23.102Z,10.08
2023-04-22T04:03:23.234Z,10.08
2023-04-22T04:04:23.382Z,10.32
2023-04-22T04:05:23.578Z,10.24
2023-04-22T04:06:23.536Z,10.32
2023-04-22T04:07:23.686Z,10.32
2023-04-22T04:08:23.845Z,10.4
2023-04-22T04:09:23.993Z,10.48
2023-04-22T04:10:24.148Z,10.639999
2023-04-22T04:11:24.299Z,10.48
2023-04-22T04:12:24.451Z,10.639999
2023-04-22T04:13:24.594Z,10.48
2023-04-22T04:14:24.697Z,10.4
2023-04-22T04:15:24.856Z,10.32
2023-04-22T04:16:24.983Z,10.32
2023-04-22T04:17:25.135Z,10.32
2023-04-22T04:18:25.263Z,10.24
2023-04-22T04:19:25.408Z,10.48
2023-04-22T04:20:25.558Z,10.24
2023-04-22T04:21:25.711Z,10.32
2023-04-22T04:22:25.858Z,10.24
2023-04-22T04:23:25.988Z,10.08
2023-04-22T04:24:26.295Z,10.24
2023-04-22T04:25:26.363Z,10.32
2023-04-22T04:26:26.473Z,10.32
2023-04-22T04:27:26.668Z,10.24
2023-04-22T04:28:26.826Z,10.32
2023-04-22T04:29:26.979Z,10.24
2023-04-22T04:30:27.074Z,10.32
2023-04-22T04:31:27.268Z,10.48
2023-04-22T04:32:27.470Z,10.639999
2023-04-22T04:33:27.526Z,10.8
2023-04-22T04:34:27.677Z,10.8
2023-04-22T04:35:27.829Z,11.12
2023-04-22T04:36:27.938Z,11.28
2023-04-22T04:37:28.083Z,11.28
2023-04-22T04:38:28.231Z,11.44
2023-04-22T04:39:28.387Z,11.28
2023-04-22T04:40:28.535Z,11.599999
2023-04-22T04:41:28.692Z,11.52
2023-04-22T04:42:28.836Z,11.44
2023-04-22T04:43:28.988Z,11.52
2023-04-22T04:44:29.170Z,11.599999
2023-04-22T04:45:29.295Z,11.599999
2023-04-22T04:46:29.428Z,11.52
2023-04-22T04:47:29.535Z,11.599999
2023-04-22T04:48:29.650Z,11.679999
2023-04-22T04:49:29.757Z,11.84
2023-04-22T04:50:29.908Z,11.92
2023-04-22T04:51:30.052Z,12
2023-04-22T04:52:30.206Z,12
2023-04-22T04:53:30.360Z,12
2023-04-22T04:54:30.506Z,12
2023-04-22T04:55:30.666Z,12
2023-04-22T04:56:30.810Z,11.92
2023-04-22T04:57:30.960Z,12
2023-04-22T04:58:31.116Z,12
2023-04-22T04:59:31.217Z,12
2023-04-22T05:00:31.366Z,12
2023-04-22T05:01:31.553Z,12.08
2023-04-22T05:02:31.718Z,11.92
2023-04-22T05:03:31.796Z,12.08
2023-04-22T05:04:31.977Z,12.24
2023-04-22T05:05:31.986Z,12.24
2023-04-22T05:06:32.130Z,12.24
2023-04-22T05:07:32.281Z,12
2023-04-22T05:08:32.436Z,12.08
2023-04-22T05:09:32.595Z,12
2023-04-22T05:10:32.736Z,12.08
2023-04-22T05:11:32.849Z,12.08
2023-04-22T05:12:32.997Z,12
2023-04-22T05:13:33.150Z,12
2023-04-22T05:14:33.248Z,12.32
2023-04-22T05:15:33.398Z,12.32
2023-04-22T05:16:33.527Z,12.32
2023-04-22T05:17:33.667Z,12.32
2023-04-22T05:18:33.801Z,12.48
2023-04-22T05:19:33.954Z,12.48
2023-04-22T05:20:36.084Z,12.639999
2023-04-22T05:21:34.258Z,12.719999
2023-04-22T05:22:34.406Z,12.799999
2023-04-22T05:23:34.569Z,12.88
2023-04-22T05:24:34.707Z,12.88
2023-04-22T05:25:34.860Z,12.88
2023-04-22T05:26:35.067Z,12.88
2023-04-22T05:27:35.166Z,12.88
2023-04-22T05:28:35.348Z,13.12
2023-04-22T05:29:35.481Z,13.2
2023-04-22T05:30:35.644Z,13.12
2023-04-22T05:31:35.798Z,13.28
2023-04-22T05:32:35.993Z,13.599999
2023-04-22T05:33:36.078Z,13.44
2023-04-22T05:34:36.231Z,13.599999
2023-04-22T05:35:36.386Z,13.599999
2023-04-22T05:36:36.530Z,13.84
2023-04-22T05:37:36.636Z,13.84
2023-04-22T05:38:36.789Z,13.92
2023-04-22T05:39:37.057Z,13.679999
2023-04-22T05:40:37.088Z,14.08
2023-04-22T05:41:37.236Z,14.48
2023-04-22T05:42:37.344Z,14.4
2023-04-22T05:43:37.490Z,15.12
2023-04-22T05:44:37.651Z,15.12
2023-04-22T05:45:37.812Z,15.2
2023-04-22T05:46:37.982Z,15.28
2023-04-22T05:47:38.071Z,15.12
2023-04-22T05:48:38.196Z,15.28
2023-04-22T05:49:38.533Z,15.2
2023-04-22T05:50:38.501Z,15.44
2023-04-22T05:51:38.657Z,15.52
2023-04-22T05:52:38.762Z,15.44
2023-04-22T05:53:38.953Z,16.24
2023-04-22T05:54:39.065Z,16
2023-04-22T05:55:39.213Z,16.24
2023-04-22T05:56:39.366Z,16.4
2023-04-22T05:57:39.521Z,16.24
2023-04-22T05:58:39.679Z,16.4
2023-04-22T05:59:40.047Z,16.72
2023-04-22T06:00:39.916Z,17.04
2023-04-22T06:01:40.087Z,17.04
2023-04-22T06:02:40.361Z,17.28
2023-04-22T06:03:40.811Z,16.8
2023-04-22T06:04:40.637Z,16.8
2023-04-22T06:05:40.648Z,16.8
2023-04-22T06:06:40.775Z,16.8
2023-04-22T06:07:40.946Z,16.24
2023-04-22T06:08:41.079Z,16.64
2023-04-22T06:09:41.506Z,16.72
2023-04-22T06:10:41.375Z,16.72
2023-04-22T06:11:41.483Z,16.8
2023-04-22T06:12:41.636Z,17.04
2023-04-22T06:13:41.795Z,17.6
2023-04-22T06:14:41.903Z,17.44
2023-04-22T06:15:42.012Z,17.12
2023-04-22T06:16:42.146Z,16.8
2023-04-22T06:17:42.417Z,16.88
2023-04-22T06:18:42.451Z,17.52
2023-04-22T06:19:42.593Z,17.12
2023-04-22T06:20:42.747Z,17.12
2023-04-22T06:21:42.899Z,17.44
2023-04-22T06:22:43.051Z,17.52
2023-04-22T06:23:43.202Z,18
2023-04-22T06:24:43.360Z,17.92
2023-04-22T06:25:43.507Z,17.76
2023-04-22T06:26:43.653Z,17.76
2023-04-22T06:27:43.812Z,18.08
2023-04-22T06:28:43.937Z,17.92
2023-04-22T06:29:44.070Z,18
2023-04-22T06:30:44.223Z,17.68
2023-04-22T06:31:44.394Z,17.6
2023-04-22T06:32:44.608Z,17.44
2023-04-22T06:33:44.705Z,17.6
2023-04-22T06:34:44.833Z,17.52
2023-04-22T06:35:44.967Z,17.52
2023-04-22T06:36:45.557Z,17.6
2023-04-22T06:37:45.175Z,18
2023-04-22T06:38:45.333Z,17.92
2023-04-22T06:39:45.479Z,17.92
2023-04-22T06:40:45.579Z,18.32
2023-04-22T06:41:45.734Z,17.92
2023-04-22T06:42:45.898Z,18.08
2023-04-22T06:43:46.038Z,18.32
2023-04-22T06:44:46.188Z,17.76
2023-04-22T06:45:46.299Z,18.32
2023-04-22T06:46:46.469Z,18.8
2023-04-22T06:47:46.570Z,18.48
2023-04-22T06:48:47.015Z,18.24
2023-04-22T06:49:46.861Z,18.4
2023-04-22T06:50:46.947Z,18.32
2023-04-22T06:51:47.096Z,18.24
2023-04-22T06:52:47.295Z,18.48
2023-04-22T06:53:47.402Z,18.8
2023-04-22T06:54:47.559Z,18.64
2023-04-22T06:55:47.699Z,18.72
2023-04-22T06:56:47.867Z,18.88
2023-04-22T06:57:48.005Z,18.88
2023-04-22T06:58:48.158Z,18.72
2023-04-22T06:59:48.256Z,18.4
2023-04-22T07:00:48.407Z,18.88
2023-04-22T07:01:48.534Z,18.72
2023-04-22T07:02:48.754Z,19.12
2023-04-22T07:03:48.815Z,18.8
2023-04-22T07:04:48.917Z,19.2
2023-04-22T07:05:49.015Z,19.12
2023-04-22T07:06:49.174Z,19.04
2023-04-22T07:07:49.271Z,19.2
2023-04-22T07:08:49.420Z,18.88
2023-04-22T07:09:49.525Z,19.2
2023-04-22T07:10:49.672Z,19.04
2023-04-22T07:11:49.826Z,18.64
2023-04-22T07:12:49.974Z,18.8
2023-04-22T07:13:50.130Z,18.32
2023-04-22T07:14:50.279Z,18.32
2023-04-22T07:15:50.385Z,18.4
2023-04-22T07:16:50.567Z,18.72
2023-04-22T07:17:50.640Z,19.2
2023-04-22T07:18:50.792Z,19.44
2023-04-22T07:19:50.944Z,19.52
2023-04-22T07:20:51.042Z,20.08
2023-04-22T07:21:51.195Z,19.04
2023-04-22T07:22:51.346Z,19.28
2023-04-22T07:23:51.500Z,18.88
2023-04-22T07:24:51.654Z,19.04
2023-04-22T07:25:51.749Z,19.76
2023-04-22T07:26:51.902Z,19.52
2023-04-22T07:27:52.049Z,19.44
2023-04-22T07:28:52.153Z,19.2
2023-04-22T07:29:52.315Z,19.2
2023-04-22T07:30:52.461Z,19.28
2023-04-22T07:31:52.691Z,19.68
2023-04-22T07:32:52.799Z,19.44
2023-04-22T07:33:52.917Z,19.28
2023-04-22T07:34:53.061Z,19.12
2023-04-22T07:35:53.214Z,19.44
2023-04-22T07:36:53.372Z,19.68
2023-04-22T07:37:53.514Z,19.44
2023-04-22T07:38:53.671Z,19.76
2023-04-22T07:39:53.824Z,20.08
2023-04-22T07:40:53.970Z,19.6
2023-04-22T07:41:54.133Z,19.68
2023-04-22T07:42:54.276Z,19.6
2023-04-22T07:43:54.426Z,19.2
2023-04-22T07:44:54.588Z,19.28
2023-04-22T07:45:54.781Z,19.92
2023-04-22T07:46:54.833Z,19.28
2023-04-22T07:47:55.004Z,19.52
2023-04-22T07:48:55.088Z,18.88
2023-04-22T07:49:55.235Z,19.28
2023-04-22T07:50:55.386Z,18.88
2023-04-22T07:51:55.539Z,18.8
2023-04-22T07:52:55.687Z,19.28
2023-04-22T07:53:55.795Z,19.12
2023-04-22T07:54:55.947Z,18.8
2023-04-22T07:55:56.049Z,18.88
2023-04-22T07:56:56.206Z,19.04
2023-04-22T07:57:56.349Z,19.44
2023-04-22T07:58:56.504Z,19.04
2023-04-22T07:59:56.654Z,19.2
2023-04-22T08:00:56.807Z,19.04
2023-04-22T08:01:56.985Z,19.2
2023-04-22T08:02:57.156Z,18.8
2023-04-22T08:03:57.456Z,19.28
2023-04-22T08:04:57.447Z,18.88
2023-04-22T08:05:57.565Z,19.2
2023-04-22T08:06:57.710Z,19.76
2023-04-22T08:07:57.818Z,20
2023-04-22T08:08:58.654Z,20.24
2023-04-22T08:09:58.020Z,20.32
2023-04-22T08:10:58.177Z,20.4
2023-04-22T08:11:58.344Z,20
2023-04-22T08:12:58.428Z,19.68
2023-04-22T08:13:58.592Z,20
2023-04-22T08:14:58.692Z,20.32
2023-04-22T08:15:58.784Z,19.52
2023-04-22T08:16:58.883Z,20.24
2023-04-22T08:17:59.065Z,19.92
2023-04-22T08:18:59.185Z,20
2023-04-22T08:19:59.338Z,19.28
2023-04-22T08:20:59.490Z,19.28
2023-04-22T08:21:59.642Z,19.52
2023-04-22T08:22:59.793Z,19.44
2023-04-22T08:23:59.943Z,19.76
2023-04-22T08:25:00.128Z,19.2
2023-04-22T08:26:00.250Z,20.08
2023-04-22T08:27:00.404Z,20.64
2023-04-22T08:28:00.509Z,20.8
2023-04-22T08:29:00.653Z,20.08
2023-04-22T08:30:00.783Z,20.24
2023-04-22T08:31:00.957Z,20.08
2023-04-22T08:32:01.015Z,20.24
2023-04-22T08:33:01.177Z,20.4
2023-04-22T08:34:01.266Z,19.76
2023-04-22T08:35:04.576Z,19.44
2023-04-22T08:36:01.567Z,19.76
2023-04-22T08:37:01.721Z,19.76
2023-04-22T08:38:01.855Z,19.28
2023-04-22T08:39:01.971Z,19.68
2023-04-22T08:40:02.136Z,19.28
2023-04-22T08:41:02.238Z,19.68
2023-04-22T08:42:02.376Z,19.52
2023-04-22T08:43:02.475Z,19.6
2023-04-22T08:44:02.630Z,19.68
2023-04-22T08:45:03.264Z,19.6
2023-04-22T08:46:02.994Z,19.68
2023-04-22T08:47:03.229Z,19.92
2023-04-22T08:48:03.228Z,19.68
2023-04-22T08:49:03.289Z,20
2023-04-22T08:50:03.384Z,19.2
2023-04-22T08:51:03.542Z,19.76
2023-04-22T08:52:03.694Z,19.68
2023-04-22T08:53:03.839Z,19.76
2023-04-22T08:54:03.944Z,19.68
2023-04-22T08:55:04.101Z,20
2023-04-22T08:56:04.245Z,20.08
2023-04-22T08:57:04.405Z,20.24
2023-04-22T08:58:04.563Z,20.08
2023-04-22T08:59:04.706Z,19.76
2023-04-22T09:00:04.854Z,20.4
2023-04-22T09:01:05.001Z,20.8
2023-04-22T09:02:05.244Z,21.04
2023-04-22T09:03:05.350Z,20.88
2023-04-22T09:04:05.520Z,20.4
2023-04-22T09:05:05.612Z,20.88
2023-04-22T09:06:05.732Z,20.8
2023-04-22T09:07:05.877Z,20.8
2023-04-22T09:08:06.019Z,21.12
2023-04-22T09:09:06.129Z,21.12
2023-04-22T09:10:06.328Z,21.52
2023-04-22T09:11:06.467Z,21.2
2023-04-22T09:12:06.577Z,20.88
2023-04-22T09:13:06.733Z,20
2023-04-22T09:14:06.876Z,20.48
2023-04-22T09:15:07.007Z,20.8
2023-04-22T09:16:07.190Z,21.28
2023-04-22T09:17:07.341Z,20.8
2023-04-22T09:18:07.437Z,20.48
2023-04-22T09:19:07.588Z,20.4
2023-04-22T09:20:07.774Z,20.4
2023-04-22T09:21:07.883Z,20.08
2023-04-22T09:22:08.044Z,20.32
2023-04-22T09:23:08.188Z,20.24
2023-04-22T09:24:08.339Z,20.32
2023-04-22T09:25:08.450Z,20.8
2023-04-22T09:26:08.601Z,20.32
2023-04-22T09:27:08.744Z,20.48
2023-04-22T09:28:08.897Z,21.6
2023-04-22T09:29:09.050Z,20.4
2023-04-22T09:30:09.214Z,20.4
2023-04-22T09:31:09.362Z,21.44
2023-04-22T09:32:09.755Z,21.84
2023-04-22T09:33:09.662Z,20.8
2023-04-22T09:34:09.801Z,20.48
2023-04-22T09:35:09.960Z,20.8
2023-04-22T09:36:10.108Z,21.2
2023-04-22T09:37:10.262Z,21.12
2023-04-22T09:38:10.411Z,20.24
2023-04-22T09:39:10.565Z,20.24
2023-04-22T09:40:10.719Z,21.12
2023-04-22T09:41:10.818Z,20.88
2023-04-22T09:42:10.918Z,20.64
2023-04-22T09:43:11.085Z,20.8
2023-04-22T09:44:11.224Z,21.04
2023-04-22T09:45:11.375Z,20.48
2023-04-22T09:46:11.541Z,20.48
2023-04-22T09:47:11.683Z,21.04
2023-04-22T09:48:11.872Z,21.04
2023-04-22T09:49:11.979Z,21.6
2023-04-22T09:50:12.132Z,20.72
2023-04-22T09:51:12.281Z,21.04
2023-04-22T09:52:12.434Z,21.28
2023-04-22T09:53:12.584Z,21.04
2023-04-22T09:54:12.740Z,22
2023-04-22T09:55:12.888Z,22
2023-04-22T09:56:13.045Z,21.52
2023-04-22T09:57:13.196Z,21.28
2023-04-22T09:58:13.351Z,21.2
2023-04-22T09:59:13.493Z,21.44
2023-04-22T10:00:13.648Z,21.84
2023-04-22T10:01:13.835Z,22.4
2023-04-22T10:02:13.964Z,22
2023-04-22T10:03:14.219Z,20.88
2023-04-22T10:04:14.234Z,21.52
2023-04-22T10:05:14.303Z,22
2023-04-22T10:06:14.454Z,22.64
2023-04-22T10:07:14.566Z,21.52
2023-04-22T10:08:14.742Z,21.2
2023-04-22T10:09:14.858Z,21.44
2023-04-22T10:10:15.018Z,20.88
2023-04-22T10:11:15.168Z,20.48
2023-04-22T10:12:16.659Z,21.2
2023-04-22T10:13:15.484Z,20.88
2023-04-22T10:14:15.620Z,21.52
2023-04-22T10:15:15.726Z,21.6
2023-04-22T10:16:15.897Z,22.32
2023-04-22T10:17:16.024Z,21.92
2023-04-22T10:18:16.175Z,22.08
2023-04-22T10:19:16.592Z,21.68
2023-04-22T10:20:16.441Z,21.6
2023-04-22T10:21:16.538Z,21.92
2023-04-22T10:22:16.735Z,21.52
2023-04-22T10:23:16.844Z,21.92
2023-04-22T10:24:16.988Z,21.44
2023-04-22T10:25:17.150Z,21.04
2023-04-22T10:26:17.286Z,21.6
2023-04-22T10:27:17.450Z,21.6
2023-04-22T10:28:17.539Z,21.52
2023-04-22T10:29:17.692Z,21.28
2023-04-22T10:30:17.841Z,21.2
2023-04-22T10:31:18.024Z,21.68
2023-04-22T10:32:18.107Z,21.28
2023-04-22T10:33:18.378Z,21.6
2023-04-22T10:34:18.422Z,21.68
2023-04-22T10:35:18.564Z,22
2023-04-22T10:36:18.709Z,22
2023-04-22T10:37:18.811Z,21.52
2023-04-22T10:38:19.411Z,21.44
2023-04-22T10:39:19.089Z,22.24
2023-04-22T10:40:19.222Z,21.84
2023-04-22T10:41:19.324Z,22.48
2023-04-22T10:42:19.468Z,21.68
2023-04-22T10:43:19.612Z,21.6
2023-04-22T10:44:19.761Z,22.08
2023-04-22T10:45:19.864Z,22.08
2023-04-22T10:46:20.018Z,21.28
2023-04-22T10:47:20.070Z,21.84
2023-04-22T10:48:20.218Z,21.6
2023-04-22T10:49:20.371Z,21.44
2023-04-22T10:50:20.481Z,21.84
2023-04-22T10:51:20.633Z,22.32
2023-04-22T10:52:20.774Z,22.24
2023-04-22T10:53:20.932Z,22.24
2023-04-22T10:54:21.092Z,22
2023-04-22T10:55:21.234Z,23.04
2023-04-22T10:56:21.379Z,22.4
2023-04-22T10:57:21.531Z,22.64
2023-04-22T10:58:21.705Z,22.88
2023-04-22T10:59:21.846Z,22.48
2023-04-22T11:00:21.996Z,23.6
2023-04-22T11:01:22.171Z,22.88
2023-04-22T11:02:22.257Z,23.44
2023-04-22T11:03:22.669Z,23.6
2023-04-22T11:04:22.681Z,22.32
2023-04-22T11:05:24.708Z,23.04
2023-04-22T11:06:22.857Z,22.08
2023-04-22T11:07:23.060Z,22.24
2023-04-22T11:08:23.153Z,23.04
2023-04-22T11:09:23.302Z,22.8
2023-04-22T11:10:23.416Z,22.64
2023-04-22T11:11:23.562Z,24.08
2023-04-22T11:12:23.672Z,25.52
2023-04-22T11:13:23.813Z,24.72
2023-04-22T11:14:23.932Z,23.28
2023-04-22T11:15:24.063Z,22.48
2023-04-22T11:16:24.256Z,22.48
2023-04-22T11:17:24.403Z,23.12
2023-04-22T11:18:24.544Z,23.28
2023-04-22T11:19:24.680Z,22.64
2023-04-22T11:20:24.777Z,22.24
2023-04-22T11:21:24.927Z,23.04
2023-04-22T11:22:25.083Z,23.44
2023-04-22T11:23:25.255Z,23.2
2023-04-22T11:24:25.380Z,23.44
2023-04-22T11:25:25.530Z,22.48
2023-04-22T11:26:25.690Z,22.72
2023-04-22T11:27:25.831Z,22.88
2023-04-22T11:28:25.990Z,24.4
2023-04-22T11:29:26.134Z,24.4
2023-04-22T11:30:26.296Z,24.88
2023-04-22T11:31:26.463Z,25.68
2023-04-22T11:32:26.565Z,24
2023-04-22T11:33:26.700Z,23.44
2023-04-22T11:34:26.794Z,22.88
2023-04-22T11:35:26.988Z,25.04
2023-04-22T11:36:27.056Z,26.4
2023-04-22T11:37:27.151Z,24.48
2023-04-22T11:38:27.305Z,23.6
2023-04-22T11:39:27.457Z,24
2023-04-22T11:40:29.833Z,25.04
2023-04-22T11:41:27.709Z,23.84
2023-04-22T11:42:27.871Z,24
2023-04-22T11:43:28.023Z,23.84
2023-04-22T11:44:28.158Z,23.2
2023-04-22T11:45:28.469Z,22.8
2023-04-22T11:46:28.517Z,22.88
2023-04-22T11:47:28.587Z,22.64
2023-04-22T11:48:28.717Z,22.88
2023-04-22T11:49:28.863Z,23.2
2023-04-22T11:50:28.972Z,22.4
2023-04-22T11:51:29.131Z,22
2023-04-22T11:52:29.284Z,21.92
2023-04-22T11:53:29.427Z,23.04
2023-04-22T11:54:30.132Z,24.64
2023-04-22T11:55:29.677Z,25.12
2023-04-22T11:56:30.080Z,23.04
2023-04-22T11:57:31.724Z,21.92
2023-04-22T11:58:30.050Z,21.84
2023-04-22T11:59:30.185Z,22
2023-04-22T12:00:30.338Z,21.68
2023-04-22T12:01:30.442Z,21.92
2023-04-22T12:02:30.791Z,22.32
2023-04-22T12:03:31.001Z,22
2023-04-22T12:04:30.889Z,22.4
2023-04-22T12:05:31.145Z,22.72
2023-04-22T12:06:31.190Z,22.32
2023-04-22T12:07:31.296Z,22.24
2023-04-22T12:08:31.454Z,22
2023-04-22T12:09:31.596Z,21.68
2023-04-22T12:10:31.745Z,21.52
2023-04-22T12:11:31.857Z,21.68
2023-04-22T12:12:32.050Z,22.4
2023-04-22T12:13:32.159Z,22.48
2023-04-22T12:14:32.304Z,22.64
2023-04-22T12:15:32.459Z,23.84
2023-04-22T12:16:32.647Z,23.6
2023-04-22T12:17:32.800Z,23.2
2023-04-22T12:18:32.910Z,23.44
2023-04-22T12:19:33.061Z,23.12
2023-04-22T12:20:33.373Z,22.88
2023-04-22T12:21:33.535Z,22.24
2023-04-22T12:22:33.610Z,22.4
2023-04-22T12:23:33.748Z,22.88
2023-04-22T12:24:33.771Z,22.48
2023-04-22T12:25:33.946Z,22.48
2023-04-22T12:26:34.075Z,22.48
2023-04-22T12:27:34.229Z,21.6
2023-04-22T12:28:34.384Z,21.44
2023-04-22T12:29:34.529Z,21.28
2023-04-22T12:30:34.681Z,21.44
2023-04-22T12:31:34.935Z,21.44
2023-04-22T12:32:34.994Z,21.92
2023-04-22T12:33:35.179Z,22.48
2023-04-22T12:34:35.244Z,23.04
2023-04-22T12:35:35.391Z,23.68
2023-04-22T12:36:35.541Z,24.8
2023-04-22T12:37:35.703Z,24.24
2023-04-22T12:38:35.797Z,24.72
2023-04-22T12:39:35.947Z,23.84
2023-04-22T12:40:36.054Z,23.44
2023-04-22T12:41:36.206Z,23.2
2023-04-22T12:42:36.359Z,23.2
2023-04-22T12:43:36.806Z,24
2023-04-22T12:44:36.660Z,24.32
2023-04-22T12:45:36.813Z,23.52
2023-04-22T12:46:36.965Z,23.84
2023-04-22T12:47:37.171Z,23.52
2023-04-22T12:48:37.447Z,23.2
2023-04-22T12:49:37.416Z,23.12
2023-04-22T12:50:37.524Z,22.8
2023-04-22T12:51:37.625Z,23.04
2023-04-22T12:52:37.798Z,23.6
2023-04-22T12:53:37.885Z,24.24
2023-04-22T12:54:38.024Z,25.12
2023-04-22T12:55:38.202Z,24
2023-04-22T12:56:38.323Z,22.88
2023-04-22T12:57:38.476Z,22.8
2023-04-22T12:58:38.630Z,23.04
2023-04-22T12:59:39.054Z,22.08
2023-04-22T13:00:38.933Z,22.88
2023-04-22T13:01:39.112Z,23.6